sensor_id;sensor_type;location;lat;lon;timestamp;temperature;humidity
15364;DHT22;7781;49.690;6.472;2023-05-10T00:00:08;12.30;99.90
15364;DHT22;7781;49.690;6.472;2023-05-10T00:02:42;12.30;99.90
15364;DHT22;7781;49.690;6.472;2023-05-10T00:05:14;12.20;99.90
15364;DHT22;7781;49.690;6.472;2023-05-10T00:07:42;12.20;99.90
15364;DHT22;7781;49.690;6.472;2023-05-10T00:10:11;12.20;99.90
15364;DHT22;7781;49.690;6.472;2023-05-10T00:12:40;12.20;99.90
15364;DHT22;7781;49.690;6.472;2023-05-10T00:15:10;12.20;99.90
15364;DHT22;7781;49.690;6.472;2023-05-10T00:17:39;12.30;99.90
15364;DHT22;7781;49.690;6.472;2023-05-10T00:20:11;12.30;99.90
15364;DHT22;7781;49.690;6.472;2023-05-10T00:22:40;12.30;99.90
15364;DHT22;7781;49.690;6.472;2023-05-10T00:25:09;12.30;99.90
15364;DHT22;7781;49.690;6.472;2023-05-10T00:27:41;12.20;99.90
15364;DHT22;7781;49.690;6.472;2023-05-10T00:30:11;12.20;99.90
15364;DHT22;7781;49.690;6.472;2023-05-10T00:32:40;12.20;99.90
15364;DHT22;7781;49.690;6.472;2023-05-10T00:35:11;12.20;99.90
15364;DHT22;7781;49.690;6.472;2023-05-10T00:37:40;12.20;99.90
15364;DHT22;7781;49.690;6.472;2023-05-10T00:40:10;12.20;99.90
15364;DHT22;7781;49.690;6.472;2023-05-10T00:42:41;12.20;99.90
15364;DHT22;7781;49.690;6.472;2023-05-10T00:45:10;12.20;99.90
15364;DHT22;7781;49.690;6.472;2023-05-10T00:47:39;12.20;99.90
15364;DHT22;7781;49.690;6.472;2023-05-10T00:50:11;12.20;99.90
15364;DHT22;7781;49.690;6.472;2023-05-10T00:52:42;12.10;99.90
15364;DHT22;7781;49.690;6.472;2023-05-10T00:55:11;12.10;99.90
15364;DHT22;7781;49.690;6.472;2023-05-10T00:57:41;12.10;99.90
15364;DHT22;7781;49.690;6.472;2023-05-10T01:00:11;12.00;99.90
15364;DHT22;7781;49.690;6.472;2023-05-10T01:02:45;12.10;99.90
15364;DHT22;7781;49.690;6.472;2023-05-10T01:05:18;12.10;99.90
15364;DHT22;7781;49.690;6.472;2023-05-10T01:07:47;12.00;99.90
15364;DHT22;7781;49.690;6.472;2023-05-10T01:10:16;12.00;99.90
15364;DHT22;7781;49.690;6.472;2023-05-10T01:12:46;12.00;99.90
15364;DHT22;7781;49.690;6.472;2023-05-10T01:15:16;12.00;99.90
15364;DHT22;7781;49.690;6.472;2023-05-10T01:17:47;11.90;99.90
15364;DHT22;7781;49.690;6.472;2023-05-10T01:20:19;12.00;99.90
15364;DHT22;7781;49.690;6.472;2023-05-10T01:26:14;12.00;99.90
15364;DHT22;7781;49.690;6.472;2023-05-10T01:29:22;11.90;99.90
15364;DHT22;7781;49.690;6.472;2023-05-10T01:32:16;11.90;99.90
15364;DHT22;7781;49.690;6.472;2023-05-10T01:34:56;11.90;99.90
15364;DHT22;7781;49.690;6.472;2023-05-10T01:37:36;11.90;99.90
15364;DHT22;7781;49.690;6.472;2023-05-10T01:40:10;11.90;99.90
15364;DHT22;7781;49.690;6.472;2023-05-10T01:42:47;11.90;99.90
15364;DHT22;7781;49.690;6.472;2023-05-10T01:45:21;11.90;99.90
15364;DHT22;7781;49.690;6.472;2023-05-10T01:48:02;12.00;99.90
15364;DHT22;7781;49.690;6.472;2023-05-10T01:50:34;12.00;99.90
15364;DHT22;7781;49.690;6.472;2023-05-10T01:53:08;12.00;99.90
15364;DHT22;7781;49.690;6.472;2023-05-10T01:55:43;12.00;99.90
15364;DHT22;7781;49.690;6.472;2023-05-10T01:58:17;12.10;99.90
15364;DHT22;7781;49.690;6.472;2023-05-10T02:00:47;12.00;99.90
15364;DHT22;7781;49.690;6.472;2023-05-10T02:03:22;12.10;99.90
15364;DHT22;7781;49.690;6.472;2023-05-10T02:05:53;12.20;99.90
15364;DHT22;7781;49.690;6.472;2023-05-10T02:08:24;12.10;99.90
15364;DHT22;7781;49.690;6.472;2023-05-10T02:10:55;12.10;99.90
15364;DHT22;7781;49.690;6.472;2023-05-10T02:13:26;12.10;99.90
15364;DHT22;7781;49.690;6.472;2023-05-10T02:15:57;12.10;99.90
15364;DHT22;7781;49.690;6.472;2023-05-10T02:18:27;12.20;99.90
15364;DHT22;7781;49.690;6.472;2023-05-10T02:20:58;12.20;99.90
15364;DHT22;7781;49.690;6.472;2023-05-10T02:23:30;12.20;99.90
15364;DHT22;7781;49.690;6.472;2023-05-10T02:26:02;12.20;99.90
15364;DHT22;7781;49.690;6.472;2023-05-10T02:28:33;12.20;99.90
15364;DHT22;7781;49.690;6.472;2023-05-10T02:31:02;12.30;99.90
15364;DHT22;7781;49.690;6.472;2023-05-10T02:33:34;12.30;99.90
15364;DHT22;7781;49.690;6.472;2023-05-10T02:36:03;12.30;99.90
15364;DHT22;7781;49.690;6.472;2023-05-10T02:38:33;12.30;99.90
15364;DHT22;7781;49.690;6.472;2023-05-10T02:41:05;12.30;99.90
15364;DHT22;7781;49.690;6.472;2023-05-10T02:43:35;12.40;99.90
15364;DHT22;7781;49.690;6.472;2023-05-10T02:46:05;12.40;99.90
15364;DHT22;7781;49.690;6.472;2023-05-10T02:48:37;12.30;99.90
15364;DHT22;7781;49.690;6.472;2023-05-10T02:51:07;12.30;99.90
15364;DHT22;7781;49.690;6.472;2023-05-10T02:53:41;12.30;99.90
15364;DHT22;7781;49.690;6.472;2023-05-10T02:56:17;12.30;99.90
15364;DHT22;7781;49.690;6.472;2023-05-10T02:58:48;12.30;99.90
15364;DHT22;7781;49.690;6.472;2023-05-10T03:01:17;12.30;99.90
15364;DHT22;7781;49.690;6.472;2023-05-10T03:03:47;12.30;99.90
15364;DHT22;7781;49.690;6.472;2023-05-10T03:06:16;12.30;99.90
15364;DHT22;7781;49.690;6.472;2023-05-10T03:08:44;12.30;99.90
15364;DHT22;7781;49.690;6.472;2023-05-10T03:11:34;12.30;99.90
15364;DHT22;7781;49.690;6.472;2023-05-10T03:14:21;12.40;99.90
15364;DHT22;7781;49.690;6.472;2023-05-10T03:16:58;12.40;99.90
15364;DHT22;7781;49.690;6.472;2023-05-10T03:19:35;12.40;99.90
15364;DHT22;7781;49.690;6.472;2023-05-10T03:22:10;12.40;99.90
15364;DHT22;7781;49.690;6.472;2023-05-10T03:24:40;12.40;99.90
15364;DHT22;7781;49.690;6.472;2023-05-10T03:27:11;12.40;99.90
15364;DHT22;7781;49.690;6.472;2023-05-10T03:29:43;12.40;99.90
15364;DHT22;7781;49.690;6.472;2023-05-10T03:32:14;12.40;99.90
15364;DHT22;7781;49.690;6.472;2023-05-10T03:34:46;12.40;99.90
15364;DHT22;7781;49.690;6.472;2023-05-10T03:37:15;12.40;99.90
15364;DHT22;7781;49.690;6.472;2023-05-10T03:39:46;12.40;99.90
15364;DHT22;7781;49.690;6.472;2023-05-10T03:42:15;12.30;99.90
15364;DHT22;7781;49.690;6.472;2023-05-10T03:44:45;12.30;99.90
15364;DHT22;7781;49.690;6.472;2023-05-10T03:47:14;12.30;99.90
15364;DHT22;7781;49.690;6.472;2023-05-10T03:49:42;12.30;99.90
15364;DHT22;7781;49.690;6.472;2023-05-10T03:52:15;12.30;99.90
15364;DHT22;7781;49.690;6.472;2023-05-10T03:54:47;12.30;99.90
15364;DHT22;7781;49.690;6.472;2023-05-10T03:57:15;12.30;99.90
15364;DHT22;7781;49.690;6.472;2023-05-10T03:59:44;12.30;99.90
15364;DHT22;7781;49.690;6.472;2023-05-10T04:02:12;12.30;99.90
15364;DHT22;7781;49.690;6.472;2023-05-10T04:04:41;12.30;99.90
15364;DHT22;7781;49.690;6.472;2023-05-10T04:07:11;12.30;99.90
15364;DHT22;7781;49.690;6.472;2023-05-10T04:09:41;12.30;99.90
15364;DHT22;7781;49.690;6.472;2023-05-10T04:12:09;12.30;99.90
15364;DHT22;7781;49.690;6.472;2023-05-10T04:14:38;12.30;99.90
15364;DHT22;7781;49.690;6.472;2023-05-10T04:17:07;12.20;99.90
15364;DHT22;7781;49.690;6.472;2023-05-10T04:19:35;12.20;99.90
15364;DHT22;7781;49.690;6.472;2023-05-10T04:22:04;12.20;99.90
15364;DHT22;7781;49.690;6.472;2023-05-10T04:24:33;12.20;99.90
15364;DHT22;7781;49.690;6.472;2023-05-10T04:27:03;12.20;99.90
15364;DHT22;7781;49.690;6.472;2023-05-10T04:29:32;12.20;99.90
15364;DHT22;7781;49.690;6.472;2023-05-10T04:32:00;12.20;99.90
15364;DHT22;7781;49.690;6.472;2023-05-10T04:34:30;12.20;99.90
15364;DHT22;7781;49.690;6.472;2023-05-10T04:37:01;12.10;99.90
15364;DHT22;7781;49.690;6.472;2023-05-10T04:39:29;12.10;99.90
15364;DHT22;7781;49.690;6.472;2023-05-10T04:41:58;12.20;99.90
15364;DHT22;7781;49.690;6.472;2023-05-10T04:44:28;12.10;99.90
15364;DHT22;7781;49.690;6.472;2023-05-10T04:46:56;12.10;99.90
15364;DHT22;7781;49.690;6.472;2023-05-10T04:49:24;12.10;99.90
15364;DHT22;7781;49.690;6.472;2023-05-10T04:51:53;12.10;99.90
15364;DHT22;7781;49.690;6.472;2023-05-10T04:54:21;12.10;99.90
15364;DHT22;7781;49.690;6.472;2023-05-10T04:56:50;12.10;99.90
15364;DHT22;7781;49.690;6.472;2023-05-10T04:59:19;12.10;99.90
15364;DHT22;7781;49.690;6.472;2023-05-10T05:01:50;12.10;99.90
15364;DHT22;7781;49.690;6.472;2023-05-10T05:04:18;12.20;99.90
15364;DHT22;7781;49.690;6.472;2023-05-10T05:06:47;12.20;99.90
15364;DHT22;7781;49.690;6.472;2023-05-10T05:09:19;12.20;99.90
15364;DHT22;7781;49.690;6.472;2023-05-10T05:11:48;12.20;99.90
15364;DHT22;7781;49.690;6.472;2023-05-10T05:14:18;12.20;99.90
15364;DHT22;7781;49.690;6.472;2023-05-10T05:16:47;12.20;99.90
15364;DHT22;7781;49.690;6.472;2023-05-10T05:19:18;12.20;99.90
15364;DHT22;7781;49.690;6.472;2023-05-10T05:21:46;12.20;99.90
15364;DHT22;7781;49.690;6.472;2023-05-10T05:24:15;12.20;99.90
15364;DHT22;7781;49.690;6.472;2023-05-10T05:26:44;12.20;99.90
15364;DHT22;7781;49.690;6.472;2023-05-10T05:29:13;12.20;99.90
15364;DHT22;7781;49.690;6.472;2023-05-10T05:31:42;12.20;99.90
15364;DHT22;7781;49.690;6.472;2023-05-10T05:34:11;12.20;99.90
15364;DHT22;7781;49.690;6.472;2023-05-10T05:36:41;12.20;99.90
15364;DHT22;7781;49.690;6.472;2023-05-10T05:39:09;12.30;99.90
15364;DHT22;7781;49.690;6.472;2023-05-10T05:41:38;12.30;99.90
15364;DHT22;7781;49.690;6.472;2023-05-10T05:44:08;12.30;99.90
15364;DHT22;7781;49.690;6.472;2023-05-10T05:46:38;12.40;99.90
15364;DHT22;7781;49.690;6.472;2023-05-10T05:49:06;12.40;99.90
15364;DHT22;7781;49.690;6.472;2023-05-10T05:51:35;12.40;99.90
15364;DHT22;7781;49.690;6.472;2023-05-10T05:54:06;12.50;99.90
15364;DHT22;7781;49.690;6.472;2023-05-10T05:56:34;12.50;99.90
15364;DHT22;7781;49.690;6.472;2023-05-10T05:59:03;12.50;99.90
15364;DHT22;7781;49.690;6.472;2023-05-10T06:01:32;12.50;99.90
15364;DHT22;7781;49.690;6.472;2023-05-10T06:04:01;12.60;99.90
15364;DHT22;7781;49.690;6.472;2023-05-10T06:06:30;12.60;99.90
15364;DHT22;7781;49.690;6.472;2023-05-10T06:09:00;12.60;99.90
15364;DHT22;7781;49.690;6.472;2023-05-10T06:11:30;12.60;99.90
15364;DHT22;7781;49.690;6.472;2023-05-10T06:13:59;12.60;99.90
15364;DHT22;7781;49.690;6.472;2023-05-10T06:16:28;12.60;99.90
15364;DHT22;7781;49.690;6.472;2023-05-10T06:18:57;12.50;99.90
15364;DHT22;7781;49.690;6.472;2023-05-10T06:21:26;12.40;99.90
15364;DHT22;7781;49.690;6.472;2023-05-10T06:23:54;12.40;99.90
15364;DHT22;7781;49.690;6.472;2023-05-10T06:26:24;12.40;99.90
15364;DHT22;7781;49.690;6.472;2023-05-10T06:28:54;12.40;99.90
15364;DHT22;7781;49.690;6.472;2023-05-10T06:31:22;12.30;99.90
15364;DHT22;7781;49.690;6.472;2023-05-10T06:33:51;12.40;99.90
15364;DHT22;7781;49.690;6.472;2023-05-10T06:36:22;12.30;99.90
15364;DHT22;7781;49.690;6.472;2023-05-10T06:38:54;12.30;99.90
15364;DHT22;7781;49.690;6.472;2023-05-10T06:41:24;12.30;99.90
15364;DHT22;7781;49.690;6.472;2023-05-10T06:43:54;12.30;99.90
15364;DHT22;7781;49.690;6.472;2023-05-10T06:46:23;12.30;99.90
15364;DHT22;7781;49.690;6.472;2023-05-10T06:48:51;12.30;99.90
15364;DHT22;7781;49.690;6.472;2023-05-10T06:51:22;12.30;99.90
15364;DHT22;7781;49.690;6.472;2023-05-10T06:53:51;12.30;99.90
15364;DHT22;7781;49.690;6.472;2023-05-10T06:56:21;12.30;99.90
15364;DHT22;7781;49.690;6.472;2023-05-10T06:58:49;12.40;99.90
15364;DHT22;7781;49.690;6.472;2023-05-10T07:01:19;12.50;99.90
15364;DHT22;7781;49.690;6.472;2023-05-10T07:03:48;12.50;99.90
15364;DHT22;7781;49.690;6.472;2023-05-10T07:06:16;12.60;99.90
15364;DHT22;7781;49.690;6.472;2023-05-10T07:09:00;12.60;99.90
15364;DHT22;7781;49.690;6.472;2023-05-10T07:11:29;12.70;99.90
15364;DHT22;7781;49.690;6.472;2023-05-10T07:13:58;12.70;99.90
15364;DHT22;7781;49.690;6.472;2023-05-10T07:16:28;12.70;99.90
15364;DHT22;7781;49.690;6.472;2023-05-10T07:18:57;12.80;99.90
15364;DHT22;7781;49.690;6.472;2023-05-10T07:21:25;12.80;99.90
15364;DHT22;7781;49.690;6.472;2023-05-10T07:23:55;12.80;99.90
15364;DHT22;7781;49.690;6.472;2023-05-10T07:26:24;12.70;99.90
15364;DHT22;7781;49.690;6.472;2023-05-10T07:28:53;12.80;99.90
15364;DHT22;7781;49.690;6.472;2023-05-10T07:31:24;12.80;99.90
15364;DHT22;7781;49.690;6.472;2023-05-10T07:33:54;12.90;99.90
15364;DHT22;7781;49.690;6.472;2023-05-10T07:36:24;13.10;99.90
15364;DHT22;7781;49.690;6.472;2023-05-10T07:38:53;13.10;99.90
15364;DHT22;7781;49.690;6.472;2023-05-10T07:41:24;13.20;99.90
15364;DHT22;7781;49.690;6.472;2023-05-10T07:43:53;13.30;99.90
15364;DHT22;7781;49.690;6.472;2023-05-10T07:46:22;13.30;99.90
15364;DHT22;7781;49.690;6.472;2023-05-10T07:48:50;13.30;99.90
15364;DHT22;7781;49.690;6.472;2023-05-10T07:51:20;13.30;99.90
15364;DHT22;7781;49.690;6.472;2023-05-10T07:53:49;13.40;99.90
15364;DHT22;7781;49.690;6.472;2023-05-10T07:56:23;13.50;99.90
15364;DHT22;7781;49.690;6.472;2023-05-10T07:58:54;13.50;99.90
15364;DHT22;7781;49.690;6.472;2023-05-10T08:01:23;13.40;99.90
15364;DHT22;7781;49.690;6.472;2023-05-10T08:03:52;13.50;99.90
15364;DHT22;7781;49.690;6.472;2023-05-10T08:06:24;13.60;99.90
15364;DHT22;7781;49.690;6.472;2023-05-10T08:08:57;13.50;99.90
15364;DHT22;7781;49.690;6.472;2023-05-10T08:11:27;13.60;99.90
15364;DHT22;7781;49.690;6.472;2023-05-10T08:13:56;13.60;99.90
15364;DHT22;7781;49.690;6.472;2023-05-10T08:16:26;13.50;99.90
15364;DHT22;7781;49.690;6.472;2023-05-10T08:18:56;13.50;99.90
15364;DHT22;7781;49.690;6.472;2023-05-10T08:21:26;13.50;99.90
15364;DHT22;7781;49.690;6.472;2023-05-10T08:23:54;13.20;99.90
15364;DHT22;7781;49.690;6.472;2023-05-10T08:26:23;12.90;99.90
15364;DHT22;7781;49.690;6.472;2023-05-10T08:28:52;12.70;99.90
15364;DHT22;7781;49.690;6.472;2023-05-10T08:31:21;12.70;99.90
15364;DHT22;7781;49.690;6.472;2023-05-10T08:33:50;12.80;99.90
15364;DHT22;7781;49.690;6.472;2023-05-10T08:36:19;12.80;99.90
15364;DHT22;7781;49.690;6.472;2023-05-10T08:38:53;12.80;99.90
15364;DHT22;7781;49.690;6.472;2023-05-10T08:41:23;12.90;99.90
15364;DHT22;7781;49.690;6.472;2023-05-10T08:43:53;12.90;99.90
15364;DHT22;7781;49.690;6.472;2023-05-10T08:46:22;13.00;99.90
15364;DHT22;7781;49.690;6.472;2023-05-10T08:48:51;12.90;99.90
15364;DHT22;7781;49.690;6.472;2023-05-10T08:51:25;12.90;99.90
15364;DHT22;7781;49.690;6.472;2023-05-10T08:53:57;12.90;99.90
15364;DHT22;7781;49.690;6.472;2023-05-10T08:56:26;12.90;99.90
15364;DHT22;7781;49.690;6.472;2023-05-10T08:58:55;13.00;99.90
15364;DHT22;7781;49.690;6.472;2023-05-10T09:01:24;13.10;99.90
15364;DHT22;7781;49.690;6.472;2023-05-10T09:03:53;13.10;99.90
15364;DHT22;7781;49.690;6.472;2023-05-10T09:06:27;13.20;99.90
15364;DHT22;7781;49.690;6.472;2023-05-10T09:08:57;13.30;99.90
15364;DHT22;7781;49.690;6.472;2023-05-10T09:11:25;13.40;99.90
15364;DHT22;7781;49.690;6.472;2023-05-10T09:13:57;13.30;99.90
15364;DHT22;7781;49.690;6.472;2023-05-10T09:16:26;13.30;99.90
15364;DHT22;7781;49.690;6.472;2023-05-10T09:18:56;13.20;99.90
15364;DHT22;7781;49.690;6.472;2023-05-10T09:21:25;13.30;99.90
15364;DHT22;7781;49.690;6.472;2023-05-10T09:23:54;13.20;99.90
15364;DHT22;7781;49.690;6.472;2023-05-10T09:26:24;13.10;99.90
15364;DHT22;7781;49.690;6.472;2023-05-10T09:28:54;13.20;99.90
15364;DHT22;7781;49.690;6.472;2023-05-10T09:31:23;13.20;99.90
15364;DHT22;7781;49.690;6.472;2023-05-10T09:33:53;13.30;99.90
15364;DHT22;7781;49.690;6.472;2023-05-10T09:36:22;13.40;99.90
15364;DHT22;7781;49.690;6.472;2023-05-10T09:38:52;13.40;99.90
15364;DHT22;7781;49.690;6.472;2023-05-10T09:41:24;13.40;99.90
15364;DHT22;7781;49.690;6.472;2023-05-10T09:43:56;13.50;99.90
15364;DHT22;7781;49.690;6.472;2023-05-10T09:46:26;13.70;99.90
15364;DHT22;7781;49.690;6.472;2023-05-10T09:48:55;13.80;99.90
15364;DHT22;7781;49.690;6.472;2023-05-10T09:51:24;13.90;99.90
15364;DHT22;7781;49.690;6.472;2023-05-10T09:54:09;14.00;99.90
15364;DHT22;7781;49.690;6.472;2023-05-10T09:56:41;14.10;99.90
15364;DHT22;7781;49.690;6.472;2023-05-10T09:59:11;14.20;99.90
15364;DHT22;7781;49.690;6.472;2023-05-10T10:01:40;14.30;99.90
15364;DHT22;7781;49.690;6.472;2023-05-10T10:04:10;14.40;99.90
15364;DHT22;7781;49.690;6.472;2023-05-10T10:06:39;14.40;99.90
15364;DHT22;7781;49.690;6.472;2023-05-10T10:09:09;14.40;99.90
15364;DHT22;7781;49.690;6.472;2023-05-10T10:11:40;14.40;99.90
15364;DHT22;7781;49.690;6.472;2023-05-10T10:14:11;14.30;99.90
15364;DHT22;7781;49.690;6.472;2023-05-10T10:16:40;14.40;99.90
15364;DHT22;7781;49.690;6.472;2023-05-10T10:19:29;14.40;99.90
15364;DHT22;7781;49.690;6.472;2023-05-10T10:21:58;14.40;99.90
15364;DHT22;7781;49.690;6.472;2023-05-10T10:24:28;14.40;99.90
15364;DHT22;7781;49.690;6.472;2023-05-10T10:27:07;14.40;99.90
15364;DHT22;7781;49.690;6.472;2023-05-10T10:29:46;14.50;99.90
15364;DHT22;7781;49.690;6.472;2023-05-10T10:32:24;14.40;99.90
15364;DHT22;7781;49.690;6.472;2023-05-10T10:34:55;14.50;99.90
15364;DHT22;7781;49.690;6.472;2023-05-10T10:37:43;14.60;99.90
15364;DHT22;7781;49.690;6.472;2023-05-10T10:40:26;14.70;99.90
15364;DHT22;7781;49.690;6.472;2023-05-10T10:42:57;14.80;99.90
15364;DHT22;7781;49.690;6.472;2023-05-10T10:45:25;14.70;99.90
15364;DHT22;7781;49.690;6.472;2023-05-10T10:48:21;14.80;99.40
15364;DHT22;7781;49.690;6.472;2023-05-10T10:50:56;14.80;70.40
15364;DHT22;7781;49.690;6.472;2023-05-10T10:53:26;14.80;97.30
15364;DHT22;7781;49.690;6.472;2023-05-10T10:56:05;14.90;99.90
15364;DHT22;7781;49.690;6.472;2023-05-10T10:58:38;15.10;99.70
15364;DHT22;7781;49.690;6.472;2023-05-10T11:01:13;15.10;32.50
15364;DHT22;7781;49.690;6.472;2023-05-10T11:06:38;15.30;40.40
15364;DHT22;7781;49.690;6.472;2023-05-10T11:09:10;15.20;35.50
15364;DHT22;7781;49.690;6.472;2023-05-10T11:11:50;15.30;1.00
15364;DHT22;7781;49.690;6.472;2023-05-10T11:14:22;15.20;5.50
15364;DHT22;7781;49.690;6.472;2023-05-10T11:16:51;15.20;1.00
15364;DHT22;7781;49.690;6.472;2023-05-10T11:19:19;15.20;1.00
15364;DHT22;7781;49.690;6.472;2023-05-10T11:21:49;15.30;1.00
15364;DHT22;7781;49.690;6.472;2023-05-10T11:24:21;15.40;1.00
15364;DHT22;7781;49.690;6.472;2023-05-10T11:26:50;15.30;1.00
15364;DHT22;7781;49.690;6.472;2023-05-10T11:29:21;15.40;94.00
15364;DHT22;7781;49.690;6.472;2023-05-10T11:31:53;15.40;98.00
15364;DHT22;7781;49.690;6.472;2023-05-10T11:34:26;15.50;99.90
15364;DHT22;7781;49.690;6.472;2023-05-10T11:36:56;15.70;83.30
15364;DHT22;7781;49.690;6.472;2023-05-10T11:39:29;15.80;77.30
15364;DHT22;7781;49.690;6.472;2023-05-10T11:41:58;15.70;95.20
15364;DHT22;7781;49.690;6.472;2023-05-10T11:44:31;15.60;99.90
15364;DHT22;7781;49.690;6.472;2023-05-10T11:47:00;16.10;99.90
15364;DHT22;7781;49.690;6.472;2023-05-10T11:49:31;16.60;99.90
15364;DHT22;7781;49.690;6.472;2023-05-10T11:52:06;17.10;94.00
15364;DHT22;7781;49.690;6.472;2023-05-10T11:54:35;17.60;69.10
15364;DHT22;7781;49.690;6.472;2023-05-10T11:57:04;17.80;62.40
15364;DHT22;7781;49.690;6.472;2023-05-10T11:59:36;18.20;50.10
15364;DHT22;7781;49.690;6.472;2023-05-10T12:02:07;18.30;36.80
15364;DHT22;7781;49.690;6.472;2023-05-10T12:04:35;18.40;38.90
15364;DHT22;7781;49.690;6.472;2023-05-10T12:07:06;18.30;29.40
15364;DHT22;7781;49.690;6.472;2023-05-10T12:09:34;18.10;29.80
15364;DHT22;7781;49.690;6.472;2023-05-10T12:12:10;17.90;27.80
15364;DHT22;7781;49.690;6.472;2023-05-10T12:14:40;17.50;22.30
15364;DHT22;7781;49.690;6.472;2023-05-10T12:17:12;17.40;30.80
15364;DHT22;7781;49.690;6.472;2023-05-10T12:19:41;17.20;36.90
15364;DHT22;7781;49.690;6.472;2023-05-10T12:22:10;17.10;45.90
15364;DHT22;7781;49.690;6.472;2023-05-10T12:24:39;16.90;50.90
15364;DHT22;7781;49.690;6.472;2023-05-10T12:27:08;17.10;54.30
15364;DHT22;7781;49.690;6.472;2023-05-10T12:29:43;17.00;51.60
15364;DHT22;7781;49.690;6.472;2023-05-10T12:32:12;17.00;36.40
15364;DHT22;7781;49.690;6.472;2023-05-10T12:34:41;17.10;34.60
15364;DHT22;7781;49.690;6.472;2023-05-10T12:37:10;17.20;26.40
15364;DHT22;7781;49.690;6.472;2023-05-10T12:39:40;17.10;24.20
15364;DHT22;7781;49.690;6.472;2023-05-10T12:42:09;17.30;34.30
15364;DHT22;7781;49.690;6.472;2023-05-10T12:44:39;17.80;26.50
15364;DHT22;7781;49.690;6.472;2023-05-10T12:47:11;18.10;26.10
15364;DHT22;7781;49.690;6.472;2023-05-10T12:49:41;18.30;25.70
15364;DHT22;7781;49.690;6.472;2023-05-10T12:52:09;18.20;99.90
15364;DHT22;7781;49.690;6.472;2023-05-10T12:54:38;18.30;99.90
15364;DHT22;7781;49.690;6.472;2023-05-10T12:57:08;18.10;99.90
15364;DHT22;7781;49.690;6.472;2023-05-10T12:59:39;17.70;71.10
15364;DHT22;7781;49.690;6.472;2023-05-10T13:02:09;17.60;99.90
15364;DHT22;7781;49.690;6.472;2023-05-10T13:04:39;17.50;29.30
15364;DHT22;7781;49.690;6.472;2023-05-10T13:07:09;17.80;27.30
15364;DHT22;7781;49.690;6.472;2023-05-10T13:09:39;17.90;23.90
15364;DHT22;7781;49.690;6.472;2023-05-10T13:12:07;18.60;24.40
15364;DHT22;7781;49.690;6.472;2023-05-10T13:14:36;19.40;28.90
15364;DHT22;7781;49.690;6.472;2023-05-10T13:17:06;20.30;99.90
15364;DHT22;7781;49.690;6.472;2023-05-10T13:19:35;20.40;99.90
15364;DHT22;7781;49.690;6.472;2023-05-10T13:22:05;20.00;99.90
15364;DHT22;7781;49.690;6.472;2023-05-10T13:24:34;19.90;99.90
15364;DHT22;7781;49.690;6.472;2023-05-10T13:27:02;19.50;99.90
15364;DHT22;7781;49.690;6.472;2023-05-10T13:29:30;19.40;99.90
15364;DHT22;7781;49.690;6.472;2023-05-10T13:31:59;19.20;99.90
15364;DHT22;7781;49.690;6.472;2023-05-10T13:34:28;18.50;99.90
15364;DHT22;7781;49.690;6.472;2023-05-10T13:36:57;18.40;99.90
15364;DHT22;7781;49.690;6.472;2023-05-10T13:39:29;18.90;99.90
15364;DHT22;7781;49.690;6.472;2023-05-10T13:42:00;19.40;99.90
15364;DHT22;7781;49.690;6.472;2023-05-10T13:44:30;20.20;99.90
15364;DHT22;7781;49.690;6.472;2023-05-10T13:47:01;20.80;99.90
15364;DHT22;7781;49.690;6.472;2023-05-10T13:49:29;21.50;99.90
15364;DHT22;7781;49.690;6.472;2023-05-10T13:51:58;22.00;99.90
15364;DHT22;7781;49.690;6.472;2023-05-10T13:54:31;22.40;99.90
15364;DHT22;7781;49.690;6.472;2023-05-10T13:57:00;23.00;99.90
15364;DHT22;7781;49.690;6.472;2023-05-10T13:59:29;23.50;99.90
15364;DHT22;7781;49.690;6.472;2023-05-10T14:01:59;23.60;99.90
15364;DHT22;7781;49.690;6.472;2023-05-10T14:04:30;23.90;99.90
15364;DHT22;7781;49.690;6.472;2023-05-10T14:06:58;24.20;99.90
15364;DHT22;7781;49.690;6.472;2023-05-10T14:09:28;24.50;99.90
15364;DHT22;7781;49.690;6.472;2023-05-10T14:12:00;23.80;99.90
15364;DHT22;7781;49.690;6.472;2023-05-10T14:14:29;22.40;99.90
15364;DHT22;7781;49.690;6.472;2023-05-10T14:16:59;22.40;99.90
15364;DHT22;7781;49.690;6.472;2023-05-10T14:19:28;22.00;99.90
15364;DHT22;7781;49.690;6.472;2023-05-10T14:22:03;22.00;99.90
15364;DHT22;7781;49.690;6.472;2023-05-10T14:24:32;22.70;99.90
15364;DHT22;7781;49.690;6.472;2023-05-10T14:27:04;22.10;99.90
15364;DHT22;7781;49.690;6.472;2023-05-10T14:29:38;21.40;99.90
15364;DHT22;7781;49.690;6.472;2023-05-10T14:32:06;20.40;99.90
15364;DHT22;7781;49.690;6.472;2023-05-10T14:34:37;19.10;99.90
15364;DHT22;7781;49.690;6.472;2023-05-10T14:37:06;17.90;99.90
15364;DHT22;7781;49.690;6.472;2023-05-10T14:39:35;18.40;99.90
15364;DHT22;7781;49.690;6.472;2023-05-10T14:42:07;18.90;99.90
15364;DHT22;7781;49.690;6.472;2023-05-10T14:44:35;18.80;99.90
15364;DHT22;7781;49.690;6.472;2023-05-10T14:47:06;19.40;99.90
15364;DHT22;7781;49.690;6.472;2023-05-10T14:49:38;19.90;99.90
15364;DHT22;7781;49.690;6.472;2023-05-10T14:52:09;19.50;99.90
15364;DHT22;7781;49.690;6.472;2023-05-10T14:54:39;18.90;99.90
15364;DHT22;7781;49.690;6.472;2023-05-10T14:57:10;18.80;99.90
15364;DHT22;7781;49.690;6.472;2023-05-10T14:59:38;19.10;99.90
15364;DHT22;7781;49.690;6.472;2023-05-10T15:02:07;19.70;99.90
15364;DHT22;7781;49.690;6.472;2023-05-10T15:04:38;20.20;99.90
15364;DHT22;7781;49.690;6.472;2023-05-10T15:07:07;20.00;99.90
15364;DHT22;7781;49.690;6.472;2023-05-10T15:09:35;19.40;99.90
15364;DHT22;7781;49.690;6.472;2023-05-10T15:12:04;19.20;99.90
15364;DHT22;7781;49.690;6.472;2023-05-10T15:14:34;19.20;99.90
15364;DHT22;7781;49.690;6.472;2023-05-10T15:17:06;19.80;99.90
15364;DHT22;7781;49.690;6.472;2023-05-10T15:19:35;20.40;99.90
15364;DHT22;7781;49.690;6.472;2023-05-10T15:22:06;19.50;99.90
15364;DHT22;7781;49.690;6.472;2023-05-10T15:24:36;19.50;99.90
15364;DHT22;7781;49.690;6.472;2023-05-10T15:27:04;19.50;99.90
15364;DHT22;7781;49.690;6.472;2023-05-10T15:29:35;19.20;99.90
15364;DHT22;7781;49.690;6.472;2023-05-10T15:32:04;18.50;99.90
15364;DHT22;7781;49.690;6.472;2023-05-10T15:34:33;18.20;99.90
15364;DHT22;7781;49.690;6.472;2023-05-10T15:37:03;18.00;99.90
15364;DHT22;7781;49.690;6.472;2023-05-10T15:39:31;17.80;99.90
15364;DHT22;7781;49.690;6.472;2023-05-10T15:42:01;18.20;99.90
15364;DHT22;7781;49.690;6.472;2023-05-10T15:44:31;18.50;99.90
15364;DHT22;7781;49.690;6.472;2023-05-10T15:47:03;18.80;99.90
15364;DHT22;7781;49.690;6.472;2023-05-10T15:49:32;18.70;99.90
15364;DHT22;7781;49.690;6.472;2023-05-10T15:52:00;18.70;99.90
15364;DHT22;7781;49.690;6.472;2023-05-10T15:54:30;18.80;99.90
15364;DHT22;7781;49.690;6.472;2023-05-10T15:56:59;18.80;99.90
15364;DHT22;7781;49.690;6.472;2023-05-10T15:59:28;18.20;99.90
15364;DHT22;7781;49.690;6.472;2023-05-10T16:01:56;17.80;99.90
15364;DHT22;7781;49.690;6.472;2023-05-10T16:04:27;17.80;99.90
15364;DHT22;7781;49.690;6.472;2023-05-10T16:06:55;18.00;99.90
15364;DHT22;7781;49.690;6.472;2023-05-10T16:09:24;18.10;99.90
15364;DHT22;7781;49.690;6.472;2023-05-10T16:11:54;18.10;99.90
15364;DHT22;7781;49.690;6.472;2023-05-10T16:14:23;18.10;99.90